Time;durP1;ratioP1;P1;durP2;ratioP2;P2;SDS_P1;SDS_P2;PMS_P1;PMS_P2;Temp;Humidity;BMP_temperature;BMP_pressure;BME280_temperature;BME280_humidity;BME280_pressure;Samples;Min_cycle;Max_cycle;Signal;HPM_P1;HPM_P2
2023/04/19 00:00:41;;;;;;;10.63;6.60;;;12.00;65.70;;;;;;5055869;28;20056;-66
2023/04/19 00:03:09;;;;;;;10.95;6.90;;;11.90;65.40;;;;;;5055196;28;20466;-67
2023/04/19 00:05:37;;;;;;;12.05;7.65;;;12.00;65.70;;;;;;5057032;28;20062;-67
2023/04/19 00:08:05;;;;;;;9.18;6.45;;;12.00;65.80;;;;;;5056376;28;20115;-66
2023/04/19 00:10:31;;;;;;;10.85;6.95;;;12.00;65.40;;;;;;5055072;28;20024;-66
2023/04/19 00:12:58;;;;;;;13.32;8.18;;;12.00;65.60;;;;;;5055970;28;20017;-66
2023/04/19 00:15:24;;;;;;;10.90;7.30;;;12.00;65.70;;;;;;5056014;28;20104;-66
2023/04/19 00:17:50;;;;;;;11.45;6.95;;;12.00;65.80;;;;;;5056242;28;20099;-66
2023/04/19 00:20:16;;;;;;;11.93;6.75;;;12.00;65.50;;;;;;5056059;28;20171;-66
2023/04/19 00:22:42;;;;;;;11.98;7.28;;;12.10;65.60;;;;;;5054808;28;20405;-66
2023/04/19 00:25:08;;;;;;;12.05;7.22;;;12.10;65.90;;;;;;5056388;28;20308;-66
2023/04/19 00:27:34;;;;;;;12.45;7.40;;;12.10;65.80;;;;;;5054814;28;20021;-66
2023/04/19 00:30:00;;;;;;;10.18;6.63;;;12.10;65.90;;;;;;5055978;28;20099;-66
2023/04/19 00:32:27;;;;;;;12.93;7.72;;;12.10;65.80;;;;;;5055709;28;20590;-66
2023/04/19 00:34:53;;;;;;;10.43;6.78;;;12.10;65.90;;;;;;5056212;28;20088;-66
2023/04/19 00:37:19;;;;;;;11.73;6.68;;;12.10;65.90;;;;;;5055465;28;20123;-66
2023/04/19 00:39:46;;;;;;;11.02;6.75;;;12.10;66.00;;;;;;5056130;28;20036;-66
2023/04/19 00:42:12;;;;;;;11.93;6.72;;;12.20;66.10;;;;;;5055330;28;20033;-67
2023/04/19 00:44:38;;;;;;;12.00;6.95;;;12.20;65.90;;;;;;5055812;28;20024;-66
2023/04/19 00:47:04;;;;;;;10.18;6.68;;;12.20;66.00;;;;;;5055970;28;20027;-66
2023/04/19 00:49:30;;;;;;;10.45;6.25;;;12.10;66.40;;;;;;5055425;28;20025;-66
2023/04/19 00:51:56;;;;;;;10.20;6.40;;;12.20;66.40;;;;;;5055332;28;20052;-66
2023/04/19 00:54:22;;;;;;;9.45;6.07;;;12.20;66.30;;;;;;5054421;28;20033;-66
2023/04/19 00:56:49;;;;;;;10.63;6.50;;;12.20;66.80;;;;;;5055363;28;20393;-66
2023/04/19 00:59:17;;;;;;;10.30;6.32;;;12.20;66.40;;;;;;5055270;28;20029;-66
2023/04/19 01:01:43;;;;;;;11.25;6.72;;;12.20;66.50;;;;;;5055063;28;20028;-66
2023/04/19 01:04:09;;;;;;;11.85;6.88;;;12.20;66.40;;;;;;5055102;28;20024;-66
2023/04/19 01:06:37;;;;;;;10.27;6.47;;;12.30;66.40;;;;;;5055181;28;20031;-66
2023/04/19 01:09:03;;;;;;;10.57;6.68;;;12.20;66.50;;;;;;5055337;28;20021;-66
2023/04/19 01:11:29;;;;;;;11.32;7.57;;;12.20;66.50;;;;;;5054324;28;20025;-66
2023/04/19 01:13:57;;;;;;;11.73;7.65;;;12.20;66.90;;;;;;5055351;28;20359;-66
2023/04/19 01:16:27;;;;;;;11.52;6.82;;;12.20;66.90;;;;;;5055004;28;20033;-66
2023/04/19 01:18:53;;;;;;;13.43;7.88;;;12.20;66.90;;;;;;5054985;28;20067;-66
2023/04/19 01:21:21;;;;;;;13.75;8.13;;;12.20;66.80;;;;;;5054875;28;20032;-66
2023/04/19 01:23:47;;;;;;;13.65;8.05;;;12.20;66.90;;;;;;5055261;28;20028;-66
2023/04/19 01:26:13;;;;;;;13.55;8.38;;;12.20;66.90;;;;;;5054964;28;20299;-67
2023/04/19 01:28:39;;;;;;;13.95;8.52;;;12.20;67.00;;;;;;5054984;28;20049;-66
2023/04/19 01:31:05;;;;;;;13.05;7.90;;;12.20;66.90;;;;;;5054786;28;20060;-66
2023/04/19 01:33:31;;;;;;;13.02;7.85;;;12.20;67.00;;;;;;5054913;28;20021;-67
2023/04/19 01:35:57;;;;;;;13.27;7.85;;;12.20;67.00;;;;;;5054939;28;20032;-67
2023/04/19 01:38:23;;;;;;;11.63;7.55;;;12.20;66.90;;;;;;5054683;28;20480;-67
2023/04/19 01:40:48;;;;;;;13.90;7.75;;;12.20;66.80;;;;;;5054827;28;20496;-66
2023/04/19 01:43:16;;;;;;;12.68;7.88;;;12.20;66.90;;;;;;5054790;28;20423;-66
2023/04/19 01:45:42;;;;;;;14.50;8.75;;;12.20;67.00;;;;;;5054796;28;20032;-66
2023/04/19 01:48:08;;;;;;;11.93;7.15;;;12.20;67.40;;;;;;5054735;28;20029;-66
2023/04/19 01:50:34;;;;;;;12.57;7.40;;;12.20;67.00;;;;;;5055273;28;20021;-66
2023/04/19 01:53:00;;;;;;;15.90;9.52;;;12.20;67.50;;;;;;5054673;28;20087;-66
2023/04/19 01:55:26;;;;;;;14.25;9.55;;;12.30;67.90;;;;;;5054696;28;20446;-66
2023/04/19 01:57:53;;;;;;;13.23;8.32;;;12.20;67.60;;;;;;5054674;28;20036;-66
2023/04/19 02:00:20;;;;;;;16.17;9.27;;;12.30;67.50;;;;;;5054535;28;20033;-66
2023/04/19 02:02:46;;;;;;;16.73;8.80;;;12.30;67.60;;;;;;5054580;28;20053;-66
2023/04/19 02:05:12;;;;;;;13.82;9.63;;;12.30;67.60;;;;;;5054630;28;20377;-66
2023/04/19 02:07:38;;;;;;;14.98;8.75;;;12.20;67.50;;;;;;5055001;28;20096;-66
2023/04/19 02:10:05;;;;;;;17.20;9.40;;;12.20;67.50;;;;;;5055080;28;20027;-66
2023/04/19 02:12:33;;;;;;;14.07;8.45;;;12.20;67.50;;;;;;5055070;28;20025;-66
2023/04/19 02:15:01;;;;;;;12.77;8.27;;;12.20;67.60;;;;;;5054948;28;20060;-66
2023/04/19 02:17:27;;;;;;;14.23;8.50;;;12.20;67.70;;;;;;5053938;28;20025;-67
2023/04/19 02:19:53;;;;;;;13.07;7.78;;;12.20;67.70;;;;;;5053492;28;20119;-66
2023/04/19 02:22:19;;;;;;;13.90;8.70;;;12.20;67.80;;;;;;5055120;28;20099;-66
2023/04/19 02:24:46;;;;;;;15.10;9.32;;;12.20;68.00;;;;;;5057199;28;20056;-66
2023/04/19 02:27:12;;;;;;;14.70;8.73;;;12.20;67.90;;;;;;5058365;28;20028;-66
2023/04/19 02:29:39;;;;;;;13.18;8.18;;;12.20;68.00;;;;;;5058573;28;20029;-66
2023/04/19 02:32:05;;;;;;;15.38;8.73;;;12.30;67.90;;;;;;5058206;28;20040;-66
2023/04/19 02:34:32;;;;;;;14.85;9.18;;;12.20;68.00;;;;;;5058176;28;20086;-66
2023/04/19 02:36:58;;;;;;;17.70;10.93;;;12.30;67.90;;;;;;5057870;28;20114;-66
2023/04/19 02:39:24;;;;;;;16.10;9.25;;;12.30;67.90;;;;;;5058173;28;20502;-66
2023/04/19 02:41:49;;;;;;;16.98;10.00;;;12.30;67.90;;;;;;5058014;28;20025;-66
2023/04/19 02:44:15;;;;;;;19.10;10.18;;;12.30;67.90;;;;;;5057751;28;20067;-66
2023/04/19 02:46:48;;;;;;;15.00;8.95;;;12.30;67.90;;;;;;5058027;28;20354;-66
2023/04/19 02:49:14;;;;;;;16.50;9.55;;;12.30;67.80;;;;;;5057981;28;20497;-66
2023/04/19 02:51:40;;;;;;;17.70;10.52;;;12.20;68.10;;;;;;5057752;28;20025;-66
2023/04/19 02:54:06;;;;;;;14.10;9.80;;;12.30;68.20;;;;;;5057632;28;20048;-66
2023/04/19 02:56:31;;;;;;;14.32;8.80;;;12.30;67.90;;;;;;5058053;28;20021;-66
2023/04/19 02:59:01;;;;;;;23.63;13.35;;;12.30;67.90;;;;;;5058014;28;20032;-66
2023/04/19 03:01:27;;;;;;;23.23;11.98;;;12.30;68.10;;;;;;5057838;28;20029;-66
2023/04/19 03:03:53;;;;;;;16.40;9.73;;;12.30;68.50;;;;;;5057715;28;20393;-66
2023/04/19 03:06:18;;;;;;;21.75;13.15;;;12.30;68.30;;;;;;5057599;28;20032;-66
2023/04/19 03:08:44;;;;;;;18.58;10.48;;;12.30;68.50;;;;;;5056358;28;20056;-66
2023/04/19 03:11:11;;;;;;;17.13;10.82;;;12.20;69.20;;;;;;5057147;28;20033;-66
2023/04/19 03:13:38;;;;;;;16.25;10.00;;;12.20;68.90;;;;;;5057277;28;20086;-66
2023/04/19 03:16:05;;;;;;;17.30;9.40;;;12.20;68.90;;;;;;5057131;28;20513;-66
2023/04/19 03:18:31;;;;;;;12.80;7.82;;;12.20;68.80;;;;;;5057133;28;20450;-66
2023/04/19 03:20:57;;;;;;;17.13;10.35;;;12.20;68.90;;;;;;5057083;28;20021;-66
2023/04/19 03:23:23;;;;;;;17.80;10.15;;;12.20;69.10;;;;;;5057318;28;20027;-66
2023/04/19 03:25:49;;;;;;;17.58;10.80;;;12.20;68.60;;;;;;5057250;28;20025;-66
2023/04/19 03:28:15;;;;;;;14.93;9.43;;;12.20;68.90;;;;;;5056053;28;20056;-67
2023/04/19 03:30:41;;;;;;;17.33;10.20;;;12.20;69.00;;;;;;5056950;28;20072;-66
2023/04/19 03:33:07;;;;;;;17.25;11.00;;;12.20;69.30;;;;;;5057341;28;20033;-66
2023/04/19 03:35:33;;;;;;;16.48;9.85;;;12.20;69.60;;;;;;5055775;28;20029;-66
2023/04/19 03:37:59;;;;;;;15.65;10.63;;;12.10;69.70;;;;;;5056571;28;20049;-66
2023/04/19 03:40:25;;;;;;;16.60;10.40;;;12.10;69.30;;;;;;5056941;28;20057;-66
2023/04/19 03:42:51;;;;;;;18.65;9.95;;;12.10;69.40;;;;;;5056628;28;20071;-66
2023/04/19 03:45:17;;;;;;;13.23;7.70;;;12.10;69.10;;;;;;5056635;28;20021;-66
2023/04/19 03:47:43;;;;;;;14.73;9.90;;;12.10;69.10;;;;;;5056592;28;20013;-66
2023/04/19 03:50:09;;;;;;;13.65;8.68;;;12.10;68.80;;;;;;5056855;28;20454;-67
2023/04/19 03:52:35;;;;;;;15.77;10.10;;;12.20;69.00;;;;;;5056413;28;20063;-67
2023/04/19 03:55:01;;;;;;;15.10;9.90;;;12.20;69.00;;;;;;5055519;28;20029;-67
2023/04/19 03:57:27;;;;;;;16.10;9.77;;;12.20;69.10;;;;;;5056711;28;20021;-67
2023/04/19 03:59:52;;;;;;;16.75;10.57;;;12.20;69.10;;;;;;5056608;28;20020;-67
2023/04/19 04:02:18;;;;;;;13.43;8.30;;;12.20;69.00;;;;;;5056429;28;20103;-67
2023/04/19 04:04:44;;;;;;;14.20;8.18;;;12.20;69.10;;;;;;5056282;28;20346;-67
2023/04/19 04:07:10;;;;;;;13.05;8.18;;;12.20;69.40;;;;;;5056246;28;20036;-67
2023/04/19 04:09:36;;;;;;;14.95;9.13;;;12.20;69.20;;;;;;5056185;28;20021;-67
2023/04/19 04:12:02;;;;;;;14.13;8.38;;;12.10;69.30;;;;;;5056040;28;20029;-67
2023/04/19 04:14:28;;;;;;;11.55;7.82;;;12.20;69.30;;;;;;5056323;28;20052;-67
2023/04/19 04:16:54;;;;;;;13.27;8.48;;;12.10;69.20;;;;;;5055979;28;20025;-67
2023/04/19 04:19:20;;;;;;;11.93;7.43;;;12.20;69.50;;;;;;5056370;28;20151;-67
2023/04/19 04:21:48;;;;;;;15.00;8.82;;;12.20;69.50;;;;;;5055725;28;20367;-67
2023/04/19 04:24:14;;;;;;;10.70;7.60;;;12.20;69.50;;;;;;5056132;28;20025;-67
2023/04/19 04:26:41;;;;;;;11.32;7.75;;;12.20;69.40;;;;;;5055878;28;20032;-67
2023/04/19 04:29:07;;;;;;;11.75;7.28;;;12.20;69.50;;;;;;5056086;28;20104;-67
2023/04/19 04:31:34;;;;;;;11.13;7.40;;;12.20;69.50;;;;;;5056018;28;20179;-67
2023/04/19 04:34:01;;;;;;;14.38;7.97;;;12.20;69.70;;;;;;5056004;28;20028;-67
2023/04/19 04:36:28;;;;;;;13.50;8.23;;;12.20;69.60;;;;;;5055965;28;20032;-67
2023/04/19 04:38:56;;;;;;;13.35;7.95;;;12.20;69.70;;;;;;5055435;28;20044;-67
2023/04/19 04:41:22;;;;;;;13.20;8.05;;;12.20;69.60;;;;;;5055353;28;20029;-67
2023/04/19 04:43:50;;;;;;;11.82;7.05;;;12.20;69.50;;;;;;5055790;28;20482;-67
2023/04/19 04:46:17;;;;;;;13.73;8.18;;;12.20;69.40;;;;;;5055269;28;20037;-67
2023/04/19 04:48:42;;;;;;;13.35;8.15;;;12.20;69.20;;;;;;5055429;28;20457;-67
2023/04/19 04:51:08;;;;;;;12.07;7.40;;;12.20;69.30;;;;;;5055589;28;20039;-67
2023/04/19 04:53:34;;;;;;;13.43;7.45;;;12.20;69.00;;;;;;5055325;28;20108;-67
2023/04/19 04:56:00;;;;;;;14.48;9.02;;;12.30;69.10;;;;;;5055307;28;20108;-67
2023/04/19 04:58:26;;;;;;;12.35;8.20;;;12.30;69.10;;;;;;5055351;28;20032;-67
2023/04/19 05:00:52;;;;;;;10.35;7.10;;;12.30;69.20;;;;;;5055231;28;20037;-65
2023/04/19 05:03:18;;;;;;;10.10;6.80;;;12.40;69.10;;;;;;5055403;28;20047;-68
2023/04/19 05:05:44;;;;;;;11.07;7.18;;;12.40;69.00;;;;;;5055472;28;20147;-69
2023/04/19 05:08:10;;;;;;;10.80;6.70;;;12.40;69.10;;;;;;5055188;28;20096;-71
2023/04/19 05:10:36;;;;;;;13.38;6.82;;;12.50;69.00;;;;;;5055461;28;20036;-71
2023/04/19 05:13:02;;;;;;;12.68;6.50;;;12.50;68.50;;;;;;5055054;28;20075;-71
2023/04/19 05:15:28;;;;;;;11.35;7.05;;;12.60;68.80;;;;;;5055107;28;20389;-71
2023/04/19 05:17:54;;;;;;;14.50;6.93;;;12.60;68.90;;;;;;5055083;28;20068;-70
2023/04/19 05:20:20;;;;;;;10.27;6.47;;;12.60;68.90;;;;;;5054957;28;20033;-66
2023/04/19 05:22:46;;;;;;;10.80;6.45;;;12.70;68.80;;;;;;5054835;28;20040;-64
2023/04/19 05:25:12;;;;;;;11.95;6.85;;;12.70;68.60;;;;;;5054990;28;20113;-65
2023/04/19 05:27:38;;;;;;;14.63;8.32;;;12.80;68.60;;;;;;5054873;28;20150;-65
2023/04/19 05:30:05;;;;;;;11.43;6.72;;;12.80;69.10;;;;;;5054955;28;20028;-65
2023/04/19 05:32:31;;;;;;;10.80;6.53;;;12.80;68.90;;;;;;5054994;28;20115;-65
2023/04/19 05:34:57;;;;;;;9.43;6.22;;;12.90;68.80;;;;;;5055169;28;20079;-64
2023/04/19 05:37:23;;;;;;;15.57;5.95;;;12.90;68.80;;;;;;5054276;28;20404;-65
2023/04/19 05:39:49;;;;;;;12.80;6.75;;;13.00;68.50;;;;;;5054843;28;20032;-65
2023/04/19 05:42:15;;;;;;;11.63;6.63;;;13.10;68.50;;;;;;5054919;28;20021;-65
2023/04/19 05:44:41;;;;;;;10.27;5.88;;;13.30;68.40;;;;;;5054753;28;20479;-64
2023/04/19 05:47:07;;;;;;;11.02;6.72;;;13.50;68.30;;;;;;5055013;28;20028;-65
2023/04/19 05:49:33;;;;;;;12.80;7.35;;;13.80;67.90;;;;;;5054856;28;20021;-64
2023/04/19 05:51:59;;;;;;;11.38;6.97;;;14.10;67.50;;;;;;5054874;28;20031;-65
2023/04/19 05:54:26;;;;;;;11.05;6.32;;;14.60;67.00;;;;;;5053768;28;20438;-65
2023/04/19 05:56:53;;;;;;;10.18;6.13;;;15.10;66.00;;;;;;5054636;28;20146;-70
2023/04/19 05:59:18;;;;;;;9.35;5.63;;;15.60;65.30;;;;;;5058265;28;20323;-68
2023/04/19 06:01:45;;;;;;;10.13;6.05;;;16.10;64.10;;;;;;5058293;28;20028;-71
2023/04/19 06:04:11;;;;;;;9.40;5.15;;;16.40;62.90;;;;;;5058349;28;20022;-73
2023/04/19 06:06:37;;;;;;;8.90;5.05;;;16.40;62.30;;;;;;5058389;28;20466;-72
2023/04/19 06:09:03;;;;;;;8.80;4.82;;;16.40;62.00;;;;;;5058319;28;20051;-72
2023/04/19 06:11:29;;;;;;;7.30;4.70;;;16.50;61.80;;;;;;5058175;28;20068;-72
2023/04/19 06:13:55;;;;;;;9.98;5.78;;;16.50;61.70;;;;;;5058515;28;20029;-72
2023/04/19 06:16:21;;;;;;;15.60;6.68;;;16.60;61.50;;;;;;5058733;28;20135;-72
2023/04/19 06:18:47;;;;;;;11.70;6.93;;;16.60;61.60;;;;;;5058558;28;20107;-73
2023/04/19 06:21:13;;;;;;;11.13;6.38;;;16.60;61.60;;;;;;5058293;28;20029;-70
2023/04/19 06:23:39;;;;;;;10.73;6.47;;;16.60;61.50;;;;;;5058534;28;20036;-71
2023/04/19 06:26:05;;;;;;;12.05;6.88;;;16.60;61.40;;;;;;5058042;28;20025;-71
2023/04/19 06:28:31;;;;;;;13.32;7.07;;;16.70;61.50;;;;;;5058282;28;20033;-72
2023/04/19 06:30:57;;;;;;;11.90;6.70;;;16.70;61.70;;;;;;5058182;28;20322;-73
2023/04/19 06:33:23;;;;;;;12.48;7.03;;;16.80;61.50;;;;;;5057868;28;20378;-70
2023/04/19 06:35:49;;;;;;;11.13;6.38;;;16.80;61.50;;;;;;5058372;28;20024;-69
2023/04/19 06:38:15;;;;;;;11.07;5.95;;;16.90;61.40;;;;;;5057667;28;20048;-70
2023/04/19 06:40:41;;;;;;;11.05;6.07;;;16.90;61.40;;;;;;5057890;28;20033;-70
2023/04/19 06:43:07;;;;;;;13.50;5.70;;;16.90;61.40;;;;;;5057678;28;20047;-71
2023/04/19 06:45:33;;;;;;;11.10;5.88;;;16.90;61.40;;;;;;5057942;28;20059;-71
2023/04/19 06:47:59;;;;;;;10.82;5.80;;;16.80;61.40;;;;;;5057785;28;20025;-71
2023/04/19 06:50:25;;;;;;;12.73;6.15;;;16.70;61.50;;;;;;5057781;28;20021;-72
2023/04/19 06:52:52;;;;;;;9.57;4.75;;;16.70;61.40;;;;;;5057281;28;20047;-70
2023/04/19 06:55:18;;;;;;;9.50;4.90;;;16.70;61.30;;;;;;5057405;28;20036;-65
2023/04/19 06:57:44;;;;;;;10.00;4.93;;;16.70;61.30;;;;;;5057367;28;20108;-65
2023/04/19 07:00:11;;;;;;;10.15;5.30;;;16.60;61.20;;;;;;5057428;28;20059;-65
2023/04/19 07:02:36;;;;;;;10.18;4.80;;;16.60;61.10;;;;;;5056144;28;20116;-65
2023/04/19 07:05:02;;;;;;;11.38;5.05;;;16.70;60.90;;;;;;5057830;28;20083;-66
2023/04/19 07:07:28;;;;;;;8.95;4.80;;;16.70;60.70;;;;;;5057290;28;20029;-66
2023/04/19 07:09:55;;;;;;;7.88;4.75;;;16.70;60.60;;;;;;5057224;28;20461;-66
2023/04/19 07:12:20;;;;;;;9.15;5.30;;;16.80;60.40;;;;;;5057063;28;20153;-70
2023/04/19 07:14:46;;;;;;;7.03;4.45;;;16.90;60.30;;;;;;5057340;28;20442;-71
2023/04/19 07:17:13;;;;;;;8.27;4.93;;;16.90;60.20;;;;;;5057619;28;20036;-69
2023/04/19 07:19:39;;;;;;;11.18;5.60;;;17.00;60.00;;;;;;5057087;28;20033;-71
2023/04/19 07:22:05;;;;;;;11.18;5.45;;;17.00;59.90;;;;;;5056790;28;20035;-66
2023/04/19 07:24:30;;;;;;;10.52;4.95;;;17.10;59.90;;;;;;5056973;28;20017;-65
2023/04/19 07:26:56;;;;;;;11.23;5.15;;;17.20;59.80;;;;;;5056937;28;20028;-72
2023/04/19 07:29:22;;;;;;;8.75;5.13;;;17.20;59.80;;;;;;5057159;28;20079;-66
2023/04/19 07:31:48;;;;;;;6.70;4.60;;;17.30;59.70;;;;;;5056979;28;20027;-71
2023/04/19 07:34:14;;;;;;;8.95;5.18;;;17.50;59.60;;;;;;5051448;28;20025;-67
2023/04/19 07:36:40;;;;;;;10.13;5.35;;;17.70;59.40;;;;;;5056312;28;20083;-68
2023/04/19 07:39:06;;;;;;;10.18;4.82;;;17.90;59.00;;;;;;5056649;28;20061;-65
2023/04/19 07:41:32;;;;;;;8.02;4.15;;;17.90;58.70;;;;;;5056053;28;20033;-68
2023/04/19 07:43:58;;;;;;;10.55;5.40;;;18.00;58.60;;;;;;5055760;28;20021;-70
2023/04/19 07:46:24;;;;;;;6.93;4.22;;;18.00;58.50;;;;;;5056492;28;20067;-71
2023/04/19 07:48:50;;;;;;;8.13;4.10;;;18.10;58.20;;;;;;5055443;28;20033;-67
2023/04/19 07:51:16;;;;;;;7.00;4.03;;;18.00;58.10;;;;;;5056389;28;20106;-66
2023/04/19 07:53:43;;;;;;;7.03;4.20;;;18.00;58.10;;;;;;5056702;28;20063;-70
2023/04/19 07:56:10;;;;;;;7.30;3.97;;;18.00;58.20;;;;;;5056397;28;20025;-69
2023/04/19 07:58:38;;;;;;;7.57;4.10;;;18.00;58.20;;;;;;5056792;28;20043;-71
2023/04/19 08:01:04;;;;;;;7.38;3.90;;;18.00;58.30;;;;;;5056471;28;20033;-71
2023/04/19 08:03:32;;;;;;;7.57;3.90;;;18.00;58.40;;;;;;5055915;28;20071;-71
2023/04/19 08:06:01;;;;;;;8.50;4.22;;;18.00;58.40;;;;;;5055810;28;20099;-71
2023/04/19 08:08:27;;;;;;;7.72;4.22;;;18.10;58.70;;;;;;5055190;28;20506;-72
2023/04/19 08:10:56;;;;;;;6.80;4.57;;;18.10;58.90;;;;;;5056064;28;20032;-72
2023/04/19 08:13:22;;;;;;;9.20;4.82;;;18.10;59.10;;;;;;5055938;28;20036;-66
2023/04/19 08:15:48;;;;;;;8.88;5.55;;;18.20;59.30;;;;;;5056345;28;20032;-66
2023/04/19 08:18:14;;;;;;;8.63;4.90;;;18.20;59.40;;;;;;5056243;28;20324;-72
2023/04/19 08:20:43;;;;;;;7.97;4.88;;;18.30;59.70;;;;;;5055450;28;20031;-66
2023/04/19 08:23:10;;;;;;;8.07;4.50;;;18.50;59.60;;;;;;5055785;28;20036;-66
2023/04/19 08:25:36;;;;;;;8.07;5.20;;;18.50;59.60;;;;;;5056058;28;20071;-66
2023/04/19 08:28:02;;;;;;;8.18;4.85;;;18.70;59.60;;;;;;5055793;28;20377;-66
2023/04/19 08:30:27;;;;;;;8.23;5.18;;;18.80;59.50;;;;;;5055609;28;20079;-66
2023/04/19 08:32:53;;;;;;;6.03;4.05;;;18.90;59.40;;;;;;5055617;28;20048;-66
2023/04/19 08:35:20;;;;;;;6.53;3.80;;;19.00;59.40;;;;;;5055536;28;20025;-66
2023/04/19 08:37:47;;;;;;;4.70;3.38;;;19.20;59.10;;;;;;5055081;28;20040;-66
2023/04/19 08:40:13;;;;;;;4.80;3.25;;;19.40;58.80;;;;;;5055576;28;20392;-66
2023/04/19 08:42:40;;;;;;;7.95;3.75;;;19.70;58.30;;;;;;5055437;28;20469;-72
2023/04/19 08:45:07;;;;;;;8.55;4.20;;;19.90;57.80;;;;;;5055816;28;20029;-72
2023/04/19 08:47:34;;;;;;;7.82;4.57;;;20.10;57.40;;;;;;5055500;28;20425;-72
2023/04/19 08:50:02;;;;;;;12.88;5.18;;;20.40;57.10;;;;;;5055409;28;20123;-72
2023/04/19 08:52:29;;;;;;;9.07;5.57;;;20.60;56.60;;;;;;5055367;28;20474;-72
2023/04/19 08:54:56;;;;;;;10.93;5.78;;;20.80;56.30;;;;;;5054467;28;20361;-72
2023/04/19 08:57:21;;;;;;;10.00;5.32;;;20.80;56.00;;;;;;5054473;28;20028;-71
2023/04/19 08:59:51;;;;;;;10.85;5.50;;;20.70;56.10;;;;;;5055342;28;20031;-72
2023/04/19 09:02:17;;;;;;;8.23;4.70;;;20.60;56.30;;;;;;5055407;28;20029;-65
2023/04/19 09:04:43;;;;;;;6.25;4.13;;;20.50;56.30;;;;;;5055255;28;20021;-66
2023/04/19 09:07:25;;;;;;;7.45;4.25;;;20.50;56.30;;;;;;5055640;28;20013;-71
2023/04/19 09:10:08;;;;;;;12.80;4.30;;;20.70;56.40;;;;;;5055493;28;20091;-66
2023/04/19 09:12:35;;;;;;;6.38;4.13;;;20.80;55.90;;;;;;5055355;28;20100;-66
2023/04/19 09:15:03;;;;;;;5.97;3.60;;;20.90;55.80;;;;;;5055666;28;20033;-71
2023/04/19 09:17:30;;;;;;;5.35;3.67;;;21.10;55.50;;;;;;5054072;28;20021;-65
2023/04/19 09:19:57;;;;;;;4.82;3.08;;;21.40;55.20;;;;;;5055137;28;20116;-72
2023/04/19 09:22:23;;;;;;;5.00;3.08;;;21.70;54.80;;;;;;5053681;28;20025;-66
2023/04/19 09:24:50;;;;;;;4.18;2.88;;;21.90;54.30;;;;;;5055275;28;20025;-71
2023/04/19 09:27:29;;;;;;;5.22;3.88;;;22.00;53.60;;;;;;5054098;28;20021;-72
2023/04/19 09:30:03;;;;;;;8.50;3.50;;;22.00;53.00;;;;;;5055733;28;20021;-72
2023/04/19 09:32:43;;;;;;;;;;;22.00;52.90;;;;;;5056371;28;20120;-72
2023/04/19 09:35:10;;;;;;;6.25;3.13;;;21.90;52.90;;;;;;5059448;28;19927;-72
2023/04/19 09:37:38;;;;;;;6.10;4.07;;;21.90;52.70;;;;;;5059189;28;20056;-72
2023/04/19 09:40:23;;;;;;;5.22;3.20;;;21.90;52.70;;;;;;5058956;28;20024;-72
2023/04/19 09:42:49;;;;;;;3.80;3.05;;;21.80;52.40;;;;;;5058786;28;20029;-71
2023/04/19 09:45:16;;;;;;;6.03;3.38;;;21.70;52.40;;;;;;5057911;28;20013;-72
2023/04/19 09:47:41;;;;;;;5.53;3.22;;;21.70;52.40;;;;;;5059387;28;20059;-72
2023/04/19 09:50:08;;;;;;;3.50;3.00;;;21.60;52.10;;;;;;5059315;28;20021;-72
2023/04/19 09:52:35;;;;;;;6.95;2.83;;;21.50;51.70;;;;;;5057880;28;20083;-72
2023/04/19 09:55:06;;;;;;;4.60;3.00;;;21.40;51.70;;;;;;5058678;28;20412;-72
2023/04/19 09:57:33;;;;;;;4.85;3.08;;;21.40;51.70;;;;;;5059151;28;20041;-72
2023/04/19 10:00:00;;;;;;;5.07;3.05;;;21.30;51.60;;;;;;5058662;28;20029;-72
2023/04/19 10:02:34;;;;;;;5.15;3.55;;;21.20;51.70;;;;;;5058431;28;20029;-72
2023/04/19 10:05:00;;;;;;;7.53;5.03;;;21.30;51.70;;;;;;5059358;28;20021;-71
2023/04/19 10:07:27;;;;;;;5.45;3.60;;;21.40;51.80;;;;;;5058499;28;20501;-72
2023/04/19 10:09:57;;;;;;;5.53;3.63;;;21.40;51.80;;;;;;5058398;28;20036;-72
2023/04/19 10:12:25;;;;;;;5.72;3.67;;;21.40;51.60;;;;;;5058576;28;20041;-72
2023/04/19 10:14:56;;;;;;;4.95;3.30;;;21.50;51.50;;;;;;5058581;28;20123;-72
2023/04/19 10:17:23;;;;;;;6.43;3.75;;;21.50;51.40;;;;;;5058245;28;20116;-72
2023/04/19 10:19:55;;;;;;;6.15;3.88;;;21.50;51.30;;;;;;5058554;28;20060;-72
2023/04/19 10:22:22;;;;;;;5.15;3.70;;;21.40;51.40;;;;;;5057126;28;20033;-72
2023/04/19 10:25:07;;;;;;;4.88;2.92;;;21.40;51.40;;;;;;5058465;28;20021;-72
2023/04/19 10:27:34;;;;;;;4.80;3.45;;;21.50;51.40;;;;;;5057495;28;20032;-72
2023/04/19 10:30:04;;;;;;;6.22;3.90;;;21.50;51.40;;;;;;5058030;28;20501;-72
2023/04/19 10:32:40;;;;;;;6.25;3.90;;;21.50;51.20;;;;;;5057907;28;20036;-72
2023/04/19 10:35:16;;;;;;;5.95;3.55;;;21.50;51.00;;;;;;5058223;28;20029;-72
2023/04/19 10:38:02;;;;;;;21.15;8.95;;;21.60;50.90;;;;;;5057853;28;20061;-71
2023/04/19 10:40:49;;;;;;;7.95;4.43;;;21.60;50.90;;;;;;5058460;28;20051;-66
2023/04/19 10:43:16;;;;;;;13.80;6.53;;;21.60;50.80;;;;;;5057578;28;20056;-66
2023/04/19 10:45:43;;;;;;;7.00;3.78;;;21.50;50.50;;;;;;5057977;28;20107;-65
2023/04/19 10:48:32;;;;;;;6.80;3.40;;;21.50;50.90;;;;;;5057768;28;20031;-72
2023/04/19 10:51:15;;;;;;;6.53;4.13;;;21.40;50.60;;;;;;5058320;28;20036;-71
2023/04/19 10:53:52;;;;;;;5.13;3.33;;;21.40;50.60;;;;;;5057943;28;20032;-71
2023/04/19 10:56:20;;;;;;;5.60;3.67;;;21.40;50.20;;;;;;5057895;28;20101;-72
2023/04/19 10:59:01;;;;;;;5.15;3.78;;;21.20;49.90;;;;;;5057831;28;20064;-71
2023/04/19 11:01:41;;;;;;;4.57;3.20;;;21.10;49.50;;;;;;5057393;28;20025;-66
2023/04/19 11:04:11;;;;;;;7.57;4.38;;;20.90;49.90;;;;;;5057430;28;20057;-71
2023/04/19 11:06:50;;;;;;;4.22;3.33;;;20.90;50.00;;;;;;5057402;28;20370;-71
2023/04/19 11:09:37;;;;;;;4.25;3.38;;;20.90;50.20;;;;;;5057251;28;20025;-71
2023/04/19 11:12:08;;;;;;;4.75;3.10;;;20.80;50.20;;;;;;5057203;28;20037;-71
2023/04/19 11:14:36;;;;;;;4.30;3.28;;;20.80;50.30;;;;;;5057537;28;20122;-71
2023/04/19 11:17:31;;;;;;;5.28;3.05;;;20.80;50.10;;;;;;5057144;28;20044;-71
2023/04/19 11:19:58;;;;;;;4.65;3.05;;;20.70;50.30;;;;;;5057083;28;20037;-72
2023/04/19 11:22:35;;;;;;;5.43;3.80;;;20.70;50.40;;;;;;5056979;28;20029;-72
2023/04/19 11:25:12;;;;;;;5.82;3.60;;;20.80;50.30;;;;;;5057610;28;20013;-71
2023/04/19 11:27:40;;;;;;;5.78;3.50;;;20.70;50.20;;;;;;5057598;28;20021;-72
2023/04/19 11:30:11;;;;;;;6.15;2.92;;;20.70;50.30;;;;;;5057288;28;20069;-72
2023/04/19 11:32:37;;;;;;;4.07;3.03;;;20.70;50.40;;;;;;5057127;28;20021;-72
2023/04/19 11:35:07;;;;;;;6.85;3.72;;;20.80;50.50;;;;;;5056816;28;20363;-72
2023/04/19 11:37:35;;;;;;;7.22;3.75;;;20.80;50.40;;;;;;5055632;28;20462;-71
2023/04/19 11:40:02;;;;;;;6.55;3.63;;;20.80;50.40;;;;;;5056750;28;20027;-71
2023/04/19 11:42:28;;;;;;;6.53;3.83;;;20.80;50.50;;;;;;5055605;28;20025;-72
2023/04/19 11:44:56;;;;;;;6.10;3.97;;;20.80;50.50;;;;;;5056604;28;20017;-72
2023/04/19 11:47:22;;;;;;;6.20;3.83;;;20.90;50.40;;;;;;5056556;28;20469;-72
2023/04/19 11:49:48;;;;;;;7.35;4.03;;;20.80;50.10;;;;;;5056579;28;20090;-71
2023/04/19 11:52:21;;;;;;;6.63;4.47;;;20.80;50.00;;;;;;5056738;28;20438;-72
2023/04/19 11:54:47;;;;;;;6.28;4.18;;;20.90;50.00;;;;;;5055913;28;20029;-72
2023/04/19 11:57:13;;;;;;;8.13;4.45;;;20.90;49.90;;;;;;5056377;28;20124;-71
2023/04/19 11:59:59;;;;;;;6.25;4.28;;;20.90;50.00;;;;;;5056599;28;20103;-72
2023/04/19 12:02:25;;;;;;;7.25;4.43;;;20.90;50.00;;;;;;5056043;28;20036;-72
2023/04/19 12:04:51;;;;;;;6.45;3.90;;;21.20;50.00;;;;;;5056272;28;20025;-72
2023/04/19 12:07:16;;;;;;;7.72;4.35;;;21.40;49.50;;;;;;5056199;28;20021;-71
2023/04/19 12:09:42;;;;;;;6.75;4.15;;;21.60;49.20;;;;;;5056182;28;20040;-71
2023/04/19 12:12:08;;;;;;;7.10;4.00;;;21.80;48.90;;;;;;5056573;28;20033;-72
2023/04/19 12:14:34;;;;;;;7.85;4.70;;;21.90;48.40;;;;;;5056067;28;20021;-72
2023/04/19 12:17:12;;;;;;;6.38;4.63;;;22.00;48.10;;;;;;5056283;28;20029;-72
2023/04/19 12:19:47;;;;;;;7.25;4.05;;;22.10;47.70;;;;;;5055998;28;20033;-72
2023/04/19 12:22:15;;;;;;;7.15;4.40;;;22.10;47.60;;;;;;5054872;28;20504;-72
2023/04/19 12:24:42;;;;;;;6.82;3.92;;;22.10;47.70;;;;;;5056164;28;20032;-72
2023/04/19 12:27:08;;;;;;;6.30;3.67;;;22.10;47.60;;;;;;5056099;28;20021;-72
2023/04/19 12:29:35;;;;;;;7.60;4.43;;;22.10;47.60;;;;;;5056068;28;20021;-72
2023/04/19 12:32:02;;;;;;;7.70;4.60;;;22.00;47.20;;;;;;5055629;28;20020;-72
2023/04/19 12:34:28;;;;;;;7.18;4.40;;;22.00;47.20;;;;;;5055733;28;20029;-72
2023/04/19 12:36:55;;;;;;;6.45;4.20;;;22.00;47.30;;;;;;5055488;28;20033;-71
2023/04/19 12:39:21;;;;;;;5.40;3.80;;;21.90;47.20;;;;;;5056288;28;20079;-72
2023/04/19 12:41:50;;;;;;;7.40;4.32;;;21.90;47.20;;;;;;5055009;28;20366;-72